Wales, WI (53183)

2:18 AM CDT on September 05, 2015 (GMT -0500)
GENESEE | | Change Station
CLOSE
Current Station
Personal Weather Station
Location: GENESEE DEPOT, WI
Elevation: 931 ft
Nearby Weather Stations

Elev 931 ft 42.97 °N, 88.36 °W | Updated 5 seconds ago

Partly Cloudy
Partly Cloudy
65.9 °F
Feels Like 65.9 °F
N
0.0
Wind Variable Wind from SSE
Gusts 0.0 mph

Today
High -- | Low -- °F
--% Chance of Precip.
Yesterday
High -- | Low -- °F
Precip. -- in
6:22 AM 7:21 PM
Waning Gibbous, 51% visible
Pressure 30.08 in
Visibility 0.8 miles
Clouds
Dew Point 65 °F
Humidity 96%
Rainfall 0.00 in
Snow Depth Not available.
UV 0.0 out of 12
Pollen 9.00 out of 12
Air Quality Not available.
Flu Activity Not available.
METAR KUES 050655Z AUTO 00000KT 3/4SM BR 17/17 A3008 RMK AO2
Pressure 30.08 in
Visibility 0.8 miles
Clouds
Dew Point 65 °F
Humidity 96%
Rainfall 0.00 in
Snow Depth Not available.
UV 0.0 out of 12
Pollen 9.00 out of 12
Air Quality Not available.
Flu Activity Not available.
METAR KUES 050655Z AUTO 00000KT 3/4SM BR 17/17 A3008 RMK AO2

10-Day Weather Forecast

×

Almanac

Astronomy

Sep. 05, 2015 Rise Set
Actual Time
Civil Twilight
Nautical Twilight
Astronomical Twilight
Moon
Length of Visible Light
Length of Day
Tomorrow will be .
, % of the Moon is Illuminated

Today's Extremes

State Highs State Lows

Community

WunderPhotos

Upload Photos

1,852,430 photos uploaded!

WunderBlogs® & News

Nearby

Air Quality

  Air Quality AQ Index Pollutant
Not available.

Snow Depth

Station Depth Elevation

Earthquake Activity

City Distance Mag. Time & Date
Minimum magnitude displayed is 2.5.

Coastal Water Temperatures

Place Temperature

Stations

Nearby Weather Stations

Station Location Temp. Windchill Dew Point Humidity Wind Precip. Elev Updated Type